• Join FlightAware (Why Join?)
  • Login
  • US Flag 
10:45PM EDT


 

Airport Tracker/Info


-or-


 

Live Flight TrackerFlight Track Log ✈ JIA2385 ✈ 31-Jul-2013 ✈ KDCA - KSAV

Flight Track Log - Related Links

Times and Time Zones

All times are in EDT time to prevent confusion due to time zone crossing. See the JIA2385 flight status page for this flight to view local times or setup timezone preferences in your user account.

Time Position Orientation Groundspeed Altitude Reporting Facility
EDT Latitude Longitude Course Direction KTS MPH feet Rate Location/Type
08:51AM 38.8833 -77.0500 225° Southwest 175 201 1,400  Level Potomac TRACON
08:52AM 38.9333 -77.1167 314° West 233 268 3,700 2,220 Climbing Potomac TRACON
08:53AM 38.9667 -77.1667 311° West 270 311 5,700 2,520 Climbing Potomac TRACON
08:54AM 38.6028 -77.3052 221° Southwest  Level FlightAware Approximate
08:54AM 39.0000 -77.2500 297° West 271 312 8,600  Level Potomac TRACON
08:55AM 38.5398 -77.3761 221° Southwest  Level FlightAware Approximate
08:55AM 38.9500 -77.3000 218° Southwest 294 338 10,500  Level Potomac TRACON
08:56AM 38.4802 -77.4517 225° Southwest  Level FlightAware Approximate
08:56AM 38.8667 -77.3333 197° South 308 354 12,500  Level Potomac TRACON
08:57AM 38.8000 -77.3667 201° Southwest 312 359 14,200 1,500 Climbing Potomac TRACON
08:58AM 38.7167 -77.4167 205° Southwest 327 376 15,400 1,620 Climbing Potomac TRACON
08:59AM 38.6333 -77.4500 197° South 323 372 17,500 1,560 Climbing Potomac TRACON
09:00AM 38.5503 -77.4925 202° Southwest 335 386 18,500 1,200 Climbing Washington Center
09:01AM 38.4661 -77.5353 202° Southwest 329 379 19,900 1,200 Climbing Washington Center
09:02AM 38.3839 -77.5861 206° Southwest 329 379 20,900 1,020 Climbing Washington Center
09:03AM 38.3219 -77.6797 230° Southwest 329 379 22,000 1,020 Climbing Washington Center
09:04AM 38.2619 -77.7733 231° Southwest 334 384 23,000 960 Climbing Washington Center
09:05AM 38.2017 -77.8694 231° Southwest 347 399 24,000 900 Climbing Washington Center
09:06AM 38.1394 -77.9625 230° Southwest 347 399 24,800 660 Climbing Washington Center
09:07AM 38.0750 -78.0581 229° Southwest 352 405 25,400 540 Climbing Washington Center
09:08AM 38.0125 -78.1508 229° Southwest 352 405 26,000 540 Climbing Washington Center
09:09AM 37.9442 -78.2222 219° Southwest 352 405 26,500 540 Climbing Washington Center
09:10AM 37.8633 -78.2983 217° Southwest 357 411 27,100 600 Climbing Washington Center
09:11AM 37.7742 -78.3661 211° Southwest 369 425 27,700 540 Climbing Washington Center
09:12AM 37.6831 -78.4206 205° Southwest 369 425 28,300 660 Climbing Washington Center
09:13AM 37.5797 -78.4769 203° Southwest 369 425 29,100 600 Climbing Washington Center
09:14AM 37.4864 -78.5311 205° Southwest 369 425 29,600 480 Climbing Washington Center
09:15AM 37.4075 -78.6092 218° Southwest 369 425 30,100 480 Climbing Washington Center
09:16AM 37.3258 -78.6947 220° Southwest 374 430 30,600 480 Climbing Washington Center
09:17AM 37.2467 -78.7722 218° Southwest 374 430 31,100 480 Climbing Washington Center
09:18AM 37.1739 -78.8475 220° Southwest 380 437 31,600 420 Climbing Washington Center
09:19AM 37.0944 -78.9300 220° Southwest 380 437 32,000 180 Climbing Washington Center
09:20AM 37.0106 -79.0122 218° Southwest 385 443 32,000  Level Washington Center
09:21AM 36.9289 -79.0969 220° Southwest 385 443 32,000  Level Washington Center
09:22AM 36.8344 -79.1914 219° Southwest 385 443 32,000  Level Washington Center
09:23AM 36.7311 -79.2928 218° Southwest 385 443 32,000  Level Washington Center
09:24AM 36.6447 -79.3819 220° Southwest 395 455 32,000  Level Washington Center
09:25AM 36.5586 -79.4681 219° Southwest 395 455 32,000  Level Washington Center
09:27AM 36.3919 -79.6311 218° Southwest 406 467 32,000  Level Atlanta Center
09:28AM 36.3033 -79.7183 218° Southwest 406 467 32,000  Level Atlanta Center
09:29AM 36.2189 -79.8025 219° Southwest 406 467 32,000  Level Atlanta Center
09:30AM 36.1219 -79.8950 218° Southwest 406 467 32,000  Level Atlanta Center
09:31AM 36.0328 -79.9792 217° Southwest 406 467 32,000  Level Atlanta Center
09:32AM 35.9303 -80.0331 203° Southwest 406 467 32,000  Level Atlanta Center
09:33AM 35.8278 -80.0842 202° Southwest 401 461 32,000  Level Atlanta Center
09:34AM 35.7253 -80.1403 204° Southwest 406 467 32,000  Level Atlanta Center
09:35AM 35.6183 -80.1914 201° Southwest 411 473 32,000  Level Atlanta Center
09:36AM 35.5136 -80.2447 203° Southwest 416 479 32,000  Level Atlanta Center
09:37AM 35.4086 -80.2931 201° Southwest 411 473 32,000  Level Atlanta Center
09:38AM 35.3164 -80.3431 204° Southwest 411 473 32,000  Level Atlanta Center
09:39AM 35.2094 -80.3961 202° Southwest 411 473 32,000  Level Atlanta Center
09:40AM 35.1044 -80.4489 202° Southwest 411 473 32,000  Level Atlanta Center
09:42AM 34.9036 -80.5486 202° Southwest 412 474 32,000  Level Jacksonville Center
09:43AM 34.8022 -80.5994 202° Southwest 404 465 32,000  Level Jacksonville Center
09:44AM 34.6992 -80.6553 204° Southwest 398 458 32,000  Level Jacksonville Center
09:45AM 34.5872 -80.7036 200° South 423 487 32,000  Level Jacksonville Center
09:46AM 34.4753 -80.7492 199° South 432 497 32,000 -120 Level Jacksonville Center
09:47AM 34.3611 -80.7747 190° South 417 480 31,800 -600 Descending Jacksonville Center
09:48AM 34.2508 -80.7925 188° South 417 480 30,800 -1,020 Descending Jacksonville Center
09:49AM 34.1364 -80.8153 189° South 412 474 29,800 -1,020 Descending Jacksonville Center
09:50AM 34.0200 -80.8356 188° South 412 474 28,800 -1,260 Descending Jacksonville Center
09:51AM 33.9139 -80.8581 190° South 424 488 27,300 -1,500 Descending Jacksonville Center
09:52AM 33.7975 -80.8833 190° South 430 495 25,800 -1,500 Descending Jacksonville Center
09:53AM 33.6850 -80.9058 189° South 425 489 24,300 -1,500 Descending Jacksonville Center
09:54AM 33.5747 -80.9256 188° South 420 483 22,800 -1,500 Descending Jacksonville Center
09:55AM 33.4667 -80.9481 190° South 407 468 21,300 -1,440 Descending Jacksonville Center
09:56AM 33.3647 -80.9653 188° South 396 456 20,000 -660 Descending Jacksonville Center
09:57AM 33.2669 -80.9847 189° South 375 432 20,000 -780 Level Jacksonville Center
09:58AM 33.1711 -81.0042 190° South 363 418 18,500 -1,440 Descending Jacksonville Center
09:59AM 33.0775 -81.0208 188° South 351 404 17,200 -1,440 Descending Jacksonville Center
10:00AM 32.9881 -81.0375 189° South 340 391 15,700 -1,500 Descending Jacksonville Center
10:01AM 32.9067 -81.0542 190° South 327 376 14,200 -1,500 Descending Jacksonville Center
10:02AM 32.8256 -81.0706 190° South 307 353 12,700 -1,500 Descending Jacksonville Center
10:03AM 32.7444 -81.0847 188° South 302 348 11,300 -1,080 Descending Jacksonville Center
10:04AM 32.6633 -81.1133 197° South 281 323 10,600 -1,140 Descending Jacksonville Center
10:05AM 32.6056 -81.1614 215° Southwest 285 328 9,100 -1,620 Descending Jacksonville Center
10:06AM 32.5353 -81.2169 214° Southwest 285 328 7,400 -1,560 Descending Jacksonville Center
10:07AM 32.4733 -81.2625 212° Southwest 273 314 6,000 -1,500 Descending Jacksonville Center
10:08AM 32.4092 -81.2931 202° Southwest 254 292 4,500 -1,320 Descending Jacksonville Center
10:09AM 32.3506 -81.3014 187° South 242 278 3,400 -1,080 Descending Jacksonville Center
10:10AM 32.2881 -81.3100 187° South 232 267 2,400 -720 Descending Jacksonville Center
10:11AM 32.2256 -81.3183 186° South 217 250 2,000 -300 Descending Jacksonville Center
10:12AM 32.1819 -81.3264 189° South 190 219 1,900 -120 Descending Jacksonville Center